Time,TemperatureF,DewpointF,PressureIn,WindDirection,WindDirectionDegrees,WindSpeedMPH,WindSpeedGustMPH,Humidity,HourlyPrecipIn,Conditions,Clouds,dailyrainin,SoftwareType,DateUTC
2013-01-24 00:03:00,48.0,24.2,32.22,West,270,0.0,0.0,39,0.00,CLR,SKC,0.00,WeatherDisplay:10.37,2013-01-24 07:03:00,
2013-01-24 00:08:00,48.0,24.2,32.23,West,270,0.0,0.0,39,0.00,CLR,SKC,0.00,WeatherDisplay:10.37,2013-01-24 07:08:00,
2013-01-24 00:13:00,47.8,24.0,32.23,West,270,0.0,0.0,39,0.00,CLR,SKC,0.00,WeatherDisplay:10.37,2013-01-24 07:13:00,
2013-01-24 00:18:00,47.3,24.2,32.23,West,270,0.0,0.0,40,0.00,CLR,SKC,0.00,WeatherDisplay:10.37,2013-01-24 07:18:00,
2013-01-24 00:23:00,47.1,24.0,32.23,West,270,0.0,0.0,40,0.00,CLR,SKC,0.00,WeatherDisplay:10.37,2013-01-24 07:23:00,
2013-01-24 00:28:00,47.1,24.0,32.23,West,270,0.0,0.0,40,0.00,CLR,SKC,0.00,WeatherDisplay:10.37,2013-01-24 07:28:00,
2013-01-24 00:33:00,47.1,24.0,32.23,West,270,0.0,0.0,40,0.00,CLR,SKC,0.00,WeatherDisplay:10.37,2013-01-24 07:33:00,
2013-01-24 00:38:00,46.9,23.8,31.89,West,270,0.0,0.0,40,0.00,CLR,SKC,0.00,WeatherDisplay:10.37,2013-01-24 07:38:00,
2013-01-24 00:43:00,46.9,23.8,32.23,West,270,0.0,0.0,40,0.00,CLR,SKC,0.00,WeatherDisplay:10.37,2013-01-24 07:43:00,
2013-01-24 00:48:00,46.9,24.4,32.23,West,270,0.0,0.0,41,0.00,CLR,SKC,0.00,WeatherDisplay:10.37,2013-01-24 07:48:00,
2013-01-24 00:53:00,46.9,24.4,31.89,West,270,4.6,4.6,41,0.00,CLR,SKC,0.00,WeatherDisplay:10.37,2013-01-24 07:53:00,
2013-01-24 00:58:00,46.8,24.3,31.89,West,270,4.6,4.6,41,0.00,CLR,SKC,0.00,WeatherDisplay:10.37,2013-01-24 07:58:00,
2013-01-24 01:03:00,46.6,24.7,32.23,West,270,5.8,5.8,42,0.00,CLR,SKC,0.00,WeatherDisplay:10.37,2013-01-24 08:03:00,
2013-01-24 01:08:00,46.6,24.7,32.23,West,270,6.9,6.9,42,0.00,CLR,SKC,0.00,WeatherDisplay:10.37,2013-01-24 08:08:00,
2013-01-24 01:13:00,46.8,25.4,32.23,West,270,6.9,6.9,43,0.00,CLR,SKC,0.00,WeatherDisplay:10.37,2013-01-24 08:13:00,
2013-01-24 01:18:00,46.9,25.0,31.89,West,270,0.0,0.0,42,0.00,CLR,SKC,0.00,WeatherDisplay:10.37,2013-01-24 08:18:00,
2013-01-24 01:23:00,46.8,24.9,32.23,West,270,0.0,0.0,42,0.00,CLR,SKC,0.00,WeatherDisplay:10.37,2013-01-24 08:23:00,
2013-01-24 01:28:00,46.6,24.7,32.23,West,270,0.0,0.0,42,0.00,CLR,SKC,0.00,WeatherDisplay:10.37,2013-01-24 08:28:00,
2013-01-24 01:33:00,46.6,24.7,32.24,West,270,0.0,0.0,42,0.00,CLR,SKC,0.00,WeatherDisplay:10.37,2013-01-24 08:33:00,
2013-01-24 01:38:00,46.2,23.8,31.89,West,270,0.0,0.0,41,0.00,CLR,SKC,0.00,WeatherDisplay:10.37,2013-01-24 08:38:00,
2013-01-24 01:43:00,46.2,24.4,32.24,West,270,0.0,0.0,42,0.00,CLR,SKC,0.00,WeatherDisplay:10.37,2013-01-24 08:43:00,
2013-01-24 01:48:00,46.0,24.2,32.24,West,270,0.0,0.0,42,0.00,CLR,SKC,0.00,WeatherDisplay:10.37,2013-01-24 08:48:00,
2013-01-24 01:53:00,46.0,24.2,32.24,West,270,0.0,0.0,42,0.00,CLR,SKC,0.00,WeatherDisplay:10.37,2013-01-24 08:53:00,
2013-01-24 01:58:00,45.7,24.4,31.89,ESE,112,8.1,8.1,43,0.00,CLR,SKC,0.00,WeatherDisplay:10.37,2013-01-24 08:58:00,
2013-01-24 02:03:00,45.5,24.3,31.89,ESE,112,0.0,0.0,43,0.00,CLR,SKC,0.00,WeatherDisplay:10.37,2013-01-24 09:03:00,
2013-01-24 02:08:00,45.5,24.3,32.24,ESE,112,0.0,0.0,43,0.00,CLR,SKC,0.00,WeatherDisplay:10.37,2013-01-24 09:08:00,
2013-01-24 02:13:00,45.5,24.3,32.24,ESE,112,0.0,0.0,43,0.00,CLR,SKC,0.00,WeatherDisplay:10.37,2013-01-24 09:13:00,
2013-01-24 02:18:00,45.7,24.4,32.24,ESE,112,0.0,0.0,43,0.00,CLR,SKC,0.00,WeatherDisplay:10.37,2013-01-24 09:18:00,
2013-01-24 02:23:00,45.7,24.4,31.89,ESE,112,0.0,0.0,43,0.00,CLR,SKC,0.00,WeatherDisplay:10.37,2013-01-24 09:23:00,
2013-01-24 02:28:00,45.7,24.4,32.24,ESE,112,0.0,0.0,43,0.00,CLR,SKC,0.00,WeatherDisplay:10.37,2013-01-24 09:28:00,
2013-01-24 02:33:00,45.5,24.3,32.24,ESE,112,0.0,0.0,43,0.00,CLR,SKC,0.00,WeatherDisplay:10.37,2013-01-24 09:33:00,
2013-01-24 02:38:00,45.3,24.7,31.89,ESE,112,0.0,0.0,44,0.00,CLR,SKC,0.00,WeatherDisplay:10.37,2013-01-24 09:38:00,
2013-01-24 02:43:00,45.3,24.7,31.89,ESE,112,0.0,0.0,44,0.00,CLR,SKC,0.00,WeatherDisplay:10.37,2013-01-24 09:43:00,
2013-01-24 02:48:00,45.1,24.5,32.24,ESE,112,0.0,0.0,44,0.00,CLR,SKC,0.00,WeatherDisplay:10.37,2013-01-24 09:48:00,
2013-01-24 02:53:00,45.0,24.3,32.24,ESE,112,0.0,0.0,44,0.00,CLR,SKC,0.00,WeatherDisplay:10.37,2013-01-24 09:53:00,
2013-01-24 02:58:00,45.0,24.9,32.24,ESE,112,0.0,0.0,45,0.00,CLR,SKC,0.00,WeatherDisplay:10.37,2013-01-24 09:58:00,
2013-01-24 03:03:00,45.1,25.0,31.89,ESE,112,0.0,0.0,45,0.00,CLR,SKC,0.00,WeatherDisplay:10.37,2013-01-24 10:03:00,
2013-01-24 03:08:00,45.0,24.9,32.23,ESE,112,0.0,0.0,45,0.00,CLR,SKC,0.00,WeatherDisplay:10.37,2013-01-24 10:08:00,
2013-01-24 03:13:00,45.1,25.0,32.23,ESE,112,0.0,0.0,45,0.00,CLR,SKC,0.00,WeatherDisplay:10.37,2013-01-24 10:13:00,
2013-01-24 03:18:00,45.1,25.0,32.23,ESE,112,0.0,0.0,45,0.00,CLR,SKC,0.00,WeatherDisplay:10.37,2013-01-24 10:18:00,
2013-01-24 03:23:00,45.5,25.4,32.23,East,90,0.0,0.0,45,0.00,CLR,SKC,0.00,WeatherDisplay:10.37,2013-01-24 10:23:00,
2013-01-24 03:28:00,45.7,25.5,32.23,East,90,0.0,0.0,45,0.00,CLR,SKC,0.00,WeatherDisplay:10.37,2013-01-24 10:28:00,
2013-01-24 03:33:00,45.7,25.5,32.23,East,90,0.0,0.0,45,0.00,CLR,SKC,0.00,WeatherDisplay:10.37,2013-01-24 10:33:00,
2013-01-24 03:38:00,45.5,25.4,32.23,East,90,0.0,0.0,45,0.00,CLR,SKC,0.00,WeatherDisplay:10.37,2013-01-24 10:38:00,
2013-01-24 03:43:00,45.3,25.2,32.23,East,90,0.0,0.0,45,0.00,CLR,SKC,0.00,WeatherDisplay:10.37,2013-01-24 10:43:00,
2013-01-24 03:48:00,45.1,25.6,32.22,East,90,0.0,0.0,46,0.00,CLR,SKC,0.00,WeatherDisplay:10.37,2013-01-24 10:48:00,
2013-01-24 03:53:00,45.1,25.6,32.22,NNW,338,0.0,0.0,46,0.00,CLR,SKC,0.00,WeatherDisplay:10.37,2013-01-24 10:53:00,
2013-01-24 03:59:00,45.3,26.3,31.89,NW,315,3.5,3.5,47,0.00,CLR,SKC,0.00,WeatherDisplay:10.37,2013-01-24 10:59:00,
2013-01-24 04:04:00,45.7,26.6,31.89,NW,315,4.6,4.6,47,0.00,CLR,SKC,0.00,WeatherDisplay:10.37,2013-01-24 11:04:00,
2013-01-24 04:09:00,46.0,26.9,32.22,NW,315,3.1,3.1,47,0.00,CLR,SKC,0.00,WeatherDisplay:10.37,2013-01-24 11:09:00,
2013-01-24 04:14:00,46.2,27.1,32.23,NW,315,3.5,3.5,47,0.00,CLR,SKC,0.00,WeatherDisplay:10.37,2013-01-24 11:14:00,
2013-01-24 04:19:00,46.6,27.4,32.22,NW,315,0.0,0.0,47,0.00,CLR,SKC,0.00,WeatherDisplay:10.37,2013-01-24 11:19:00,
2013-01-24 04:24:00,46.6,27.4,31.89,WNW,292,6.7,6.7,47,0.00,CLR,SKC,0.00,WeatherDisplay:10.37,2013-01-24 11:24:00,
2013-01-24 04:29:00,46.8,27.6,32.22,WNW,292,6.3,6.3,47,0.00,CLR,SKC,0.00,WeatherDisplay:10.37,2013-01-24 11:29:00,
2013-01-24 04:34:00,46.9,27.7,32.22,WNW,292,3.5,3.5,47,0.00,CLR,SKC,0.00,WeatherDisplay:10.37,2013-01-24 11:34:00,
2013-01-24 04:39:00,46.9,27.7,32.22,WNW,292,1.2,1.2,47,0.00,CLR,SKC,0.00,WeatherDisplay:10.37,2013-01-24 11:39:00,
2013-01-24 04:44:00,46.9,27.7,31.89,WNW,292,6.5,6.5,47,0.00,CLR,SKC,0.00,WeatherDisplay:10.37,2013-01-24 11:44:00,
2013-01-24 04:49:00,47.1,27.9,32.22,WNW,292,6.9,6.9,47,0.00,CLR,SKC,0.00,WeatherDisplay:10.37,2013-01-24 11:49:00,
2013-01-24 04:54:00,47.1,27.9,32.22,WNW,292,4.6,4.6,47,0.00,CLR,SKC,0.00,WeatherDisplay:10.37,2013-01-24 11:54:00,
2013-01-24 04:59:00,47.1,27.9,32.22,WNW,292,6.9,6.9,47,0.00,CLR,SKC,0.00,WeatherDisplay:10.37,2013-01-24 11:59:00,
2013-01-24 05:04:00,47.3,28.1,31.89,WNW,292,3.5,3.5,47,0.00,CLR,SKC,0.00,WeatherDisplay:10.37,2013-01-24 12:04:00,
2013-01-24 05:09:00,47.5,28.2,32.22,WNW,292,4.6,4.6,47,0.00,CLR,SKC,0.00,WeatherDisplay:10.37,2013-01-24 12:09:00,
2013-01-24 05:14:00,47.5,28.2,32.22,WNW,292,3.5,3.5,47,0.00,CLR,SKC,0.00,WeatherDisplay:10.37,2013-01-24 12:14:00,
2013-01-24 05:19:00,47.5,27.7,32.22,WNW,292,0.0,0.0,46,0.00,CLR,SKC,0.00,WeatherDisplay:10.37,2013-01-24 12:19:00,
2013-01-24 05:24:00,47.3,27.5,31.89,WNW,292,0.0,0.0,46,0.00,CLR,SKC,0.00,WeatherDisplay:10.37,2013-01-24 12:24:00,
2013-01-24 05:29:00,47.1,27.9,32.23,WNW,292,0.0,0.0,47,0.00,CLR,SKC,0.00,WeatherDisplay:10.37,2013-01-24 12:29:00,
2013-01-24 05:34:00,47.1,27.9,32.22,WNW,292,0.0,0.0,47,0.00,CLR,SKC,0.00,WeatherDisplay:10.37,2013-01-24 12:34:00,
2013-01-24 05:39:00,46.9,27.7,32.23,WNW,292,0.0,0.0,47,0.00,CLR,SKC,0.00,WeatherDisplay:10.37,2013-01-24 12:39:00,
2013-01-24 05:44:00,46.9,27.7,31.89,WNW,292,0.0,0.0,47,0.00,CLR,SKC,0.00,WeatherDisplay:10.37,2013-01-24 12:44:00,
2013-01-24 05:49:00,46.9,28.3,32.23,West,270,8.1,8.1,48,0.00,CLR,SKC,0.00,WeatherDisplay:10.37,2013-01-24 12:49:00,
2013-01-24 05:54:00,46.9,28.3,32.23,WNW,292,5.8,5.8,48,0.00,CLR,SKC,0.00,WeatherDisplay:10.37,2013-01-24 12:54:00,
2013-01-24 05:59:00,47.1,28.4,31.89,WNW,292,3.5,3.5,48,0.00,CLR,SKC,0.00,WeatherDisplay:10.37,2013-01-24 12:59:00,
2013-01-24 06:04:00,47.1,28.4,31.89,WNW,292,3.4,3.4,48,0.00,CLR,SKC,0.00,WeatherDisplay:10.37,2013-01-24 13:04:00,
2013-01-24 06:09:00,47.1,28.4,32.23,WNW,292,2.9,2.9,48,0.00,CLR,SKC,0.00,WeatherDisplay:10.37,2013-01-24 13:09:00,
2013-01-24 06:14:00,47.1,28.4,32.22,WNW,292,9.2,9.2,48,0.00,CLR,SKC,0.00,WeatherDisplay:10.37,2013-01-24 13:14:00,
2013-01-24 06:19:00,47.3,28.6,32.22,West,270,5.8,5.8,48,0.00,CLR,SKC,0.00,WeatherDisplay:10.37,2013-01-24 13:19:00,
2013-01-24 06:24:00,47.3,28.1,31.89,West,270,8.1,8.1,47,0.00,CLR,SKC,0.00,WeatherDisplay:10.37,2013-01-24 13:24:00,
2013-01-24 06:29:00,47.5,28.2,32.22,WNW,292,5.8,5.8,47,0.00,CLR,SKC,0.00,WeatherDisplay:10.37,2013-01-24 13:29:00,
2013-01-24 06:34:00,47.5,28.2,32.22,WNW,292,4.6,4.6,47,0.00,CLR,SKC,0.00,WeatherDisplay:10.37,2013-01-24 13:34:00,
2013-01-24 06:39:00,47.7,28.4,32.22,WNW,292,0.0,0.0,47,0.00,CLR,SKC,0.00,WeatherDisplay:10.37,2013-01-24 13:39:00,
2013-01-24 06:44:00,47.5,28.2,31.89,NW,315,7.4,7.4,47,0.00,CLR,SKC,0.00,WeatherDisplay:10.37,2013-01-24 13:44:00,
2013-01-24 06:49:00,47.3,28.6,32.22,NW,315,8.1,8.3,48,0.00,CLR,SKC,0.00,WeatherDisplay:10.37,2013-01-24 13:49:00,
2013-01-24 06:54:00,47.3,28.6,32.22,NW,315,10.4,10.4,48,0.00,CLR,SKC,0.00,WeatherDisplay:10.37,2013-01-24 13:54:00,
2013-01-24 06:59:00,47.1,28.4,31.89,WNW,292,9.2,9.2,48,0.00,CLR,SKC,0.00,WeatherDisplay:10.37,2013-01-24 13:59:00,
2013-01-24 07:04:00,47.1,28.4,31.89,WNW,292,5.8,5.8,48,0.00,CLR,SKC,0.00,WeatherDisplay:10.37,2013-01-24 14:04:00,
2013-01-24 07:09:00,47.3,29.1,32.23,West,270,2.3,0.0,49,0.00,CLR,SKC,0.00,WeatherDisplay:10.37,2013-01-24 14:09:00,
2013-01-24 07:14:00,47.3,28.6,32.23,West,270,4.6,4.6,48,0.00,CLR,SKC,0.00,WeatherDisplay:10.37,2013-01-24 14:14:00,
2013-01-24 07:19:00,47.5,28.7,32.23,WSW,248,2.3,2.3,48,0.00,CLR,SKC,0.00,WeatherDisplay:10.37,2013-01-24 14:19:00,
2013-01-24 07:24:00,47.5,28.7,31.89,West,270,4.6,4.6,48,0.00,CLR,SKC,0.00,WeatherDisplay:10.37,2013-01-24 14:24:00,
2013-01-24 07:29:00,47.8,29.1,32.24,West,270,6.9,6.9,48,0.00,CLR,SKC,0.00,WeatherDisplay:10.37,2013-01-24 14:29:00,
2013-01-24 07:34:00,48.0,29.2,32.24,West,270,1.2,0.0,48,0.00,CLR,SKC,0.00,WeatherDisplay:10.37,2013-01-24 14:34:00,
2013-01-24 07:39:00,48.2,29.4,32.24,West,270,0.0,0.0,48,0.00,CLR,SKC,0.00,WeatherDisplay:10.37,2013-01-24 14:39:00,
2013-01-24 07:44:00,48.2,29.4,31.89,West,270,0.0,0.0,48,0.00,CLR,SKC,0.00,WeatherDisplay:10.37,2013-01-24 14:44:00,
2013-01-24 07:49:00,48.4,29.6,32.24,West,270,0.0,0.0,48,0.00,CLR,SKC,0.00,WeatherDisplay:10.37,2013-01-24 14:49:00,
2013-01-24 07:54:00,48.4,29.6,32.24,West,270,0.0,0.0,48,0.00,CLR,SKC,0.00,WeatherDisplay:10.37,2013-01-24 14:54:00,
2013-01-24 07:59:00,48.4,29.6,32.24,West,270,0.0,0.0,48,0.00,CLR,SKC,0.00,WeatherDisplay:10.37,2013-01-24 14:59:00,
2013-01-24 08:04:00,48.6,29.7,32.24,West,270,0.0,0.0,48,0.00,CLR,SKC,0.00,WeatherDisplay:10.37,2013-01-24 15:04:00,
2013-01-24 08:09:00,48.6,29.7,32.24,West,270,0.0,0.0,48,0.00,CLR,SKC,0.00,WeatherDisplay:10.37,2013-01-24 15:09:00,
2013-01-24 08:14:00,48.6,29.7,32.24,West,270,0.0,0.0,48,0.00,CLR,SKC,0.00,WeatherDisplay:10.37,2013-01-24 15:14:00,
2013-01-24 08:19:00,48.6,29.7,31.89,West,270,0.0,0.0,48,0.00,CLR,SKC,0.00,WeatherDisplay:10.37,2013-01-24 15:19:00,
2013-01-24 08:24:00,48.7,29.9,31.89,West,270,0.0,0.0,48,0.00,CLR,SKC,0.00,WeatherDisplay:10.37,2013-01-24 15:24:00,
2013-01-24 08:29:00,48.6,29.7,32.25,West,270,0.0,0.0,48,0.00,CLR,SKC,0.00,WeatherDisplay:10.37,2013-01-24 15:29:00,
2013-01-24 08:34:00,48.6,29.7,32.25,West,270,0.0,0.0,48,0.00,CLR,SKC,0.00,WeatherDisplay:10.37,2013-01-24 15:34:00,
2013-01-24 08:39:00,48.6,29.7,32.25,West,270,0.0,0.0,48,0.00,CLR,SKC,0.00,WeatherDisplay:10.37,2013-01-24 15:39:00,
2013-01-24 08:44:00,48.7,29.9,32.25,West,270,0.0,0.0,48,0.00,CLR,SKC,0.00,WeatherDisplay:10.37,2013-01-24 15:44:00,
2013-01-24 08:49:00,49.1,30.2,32.25,West,270,0.0,0.0,48,0.00,CLR,SKC,0.00,WeatherDisplay:10.37,2013-01-24 15:49:00,
2013-01-24 08:54:00,49.3,30.4,32.25,West,270,0.0,0.0,48,0.00,CLR,SKC,0.00,WeatherDisplay:10.37,2013-01-24 15:54:00,
2013-01-24 08:59:00,49.5,30.6,32.25,West,270,0.0,0.0,48,0.00,CLR,SKC,0.00,WeatherDisplay:10.37,2013-01-24 15:59:00,
2013-01-24 09:04:00,49.6,30.7,31.89,West,270,0.0,0.0,48,0.00,CLR,SKC,0.00,WeatherDisplay:10.37,2013-01-24 16:04:00,
2013-01-24 09:09:00,49.8,30.9,32.25,West,270,0.0,0.0,48,0.00,CLR,SKC,0.00,WeatherDisplay:10.37,2013-01-24 16:09:00,
2013-01-24 09:14:00,50.0,30.5,32.26,West,270,0.0,0.0,47,0.00,CLR,SKC,0.00,WeatherDisplay:10.37,2013-01-24 16:14:00,
2013-01-24 09:19:00,50.5,31.0,31.89,West,270,0.0,0.0,47,0.00,CLR,SKC,0.00,WeatherDisplay:10.37,2013-01-24 16:19:00,
2013-01-24 09:24:00,50.7,31.2,31.89,West,270,0.0,0.0,47,0.00,CLR,SKC,0.00,WeatherDisplay:10.37,2013-01-24 16:24:00,
2013-01-24 09:29:00,51.3,31.7,32.26,West,270,0.0,0.0,47,0.00,CLR,SKC,0.00,WeatherDisplay:10.37,2013-01-24 16:29:00,
2013-01-24 09:34:00,51.6,32.0,32.26,West,270,0.0,0.0,47,0.00,CLR,SKC,0.00,WeatherDisplay:10.37,2013-01-24 16:34:00,
2013-01-24 09:39:00,52.0,31.8,32.26,West,270,0.0,0.0,46,0.00,CLR,SKC,0.00,WeatherDisplay:10.37,2013-01-24 16:39:00,
2013-01-24 09:44:00,52.5,32.3,31.89,WNW,292,7.6,7.6,46,0.00,CLR,SKC,0.00,WeatherDisplay:10.37,2013-01-24 16:44:00,
2013-01-24 09:49:00,53.2,33.0,32.26,WNW,292,4.6,4.6,46,0.00,CLR,SKC,0.00,WeatherDisplay:10.37,2013-01-24 16:49:00,
2013-01-24 09:54:00,54.3,33.4,32.26,West,270,3.5,3.5,45,0.00,CLR,SKC,0.00,WeatherDisplay:10.37,2013-01-24 16:54:00,
2013-01-24 09:59:00,55.0,33.5,32.26,West,270,5.8,5.8,44,0.00,CLR,SKC,0.00,WeatherDisplay:10.37,2013-01-24 16:59:00,
2013-01-24 10:04:00,55.6,33.4,31.89,WNW,292,2.3,2.3,43,0.00,CLR,SKC,0.00,WeatherDisplay:10.37,2013-01-24 17:04:00,
2013-01-24 10:09:00,55.8,33.6,32.26,WNW,292,0.0,0.0,43,0.00,CLR,SKC,0.00,WeatherDisplay:10.37,2013-01-24 17:09:00,
2013-01-24 10:14:00,55.9,33.7,32.26,WNW,292,0.0,0.0,43,0.00,CLR,SKC,0.00,WeatherDisplay:10.37,2013-01-24 17:14:00,
2013-01-24 10:19:00,56.3,34.1,32.26,WNW,292,4.6,4.6,43,0.00,CLR,SKC,0.00,WeatherDisplay:10.37,2013-01-24 17:19:00,
2013-01-24 10:24:00,56.5,33.6,32.26,WNW,292,8.1,8.1,42,0.00,CLR,SKC,0.00,WeatherDisplay:10.37,2013-01-24 17:24:00,
2013-01-24 10:29:00,57.0,34.1,32.26,NW,315,8.1,8.1,42,0.00,CLR,SKC,0.00,WeatherDisplay:10.37,2013-01-24 17:29:00,
2013-01-24 10:34:00,57.4,34.5,32.26,West,270,6.9,6.9,42,0.00,CLR,SKC,0.00,WeatherDisplay:10.37,2013-01-24 17:34:00,
2013-01-24 10:39:00,57.9,34.3,32.26,WNW,292,5.8,5.8,41,0.00,CLR,SKC,0.00,WeatherDisplay:10.37,2013-01-24 17:39:00,
2013-01-24 10:44:00,58.1,34.5,31.89,WNW,292,2.3,2.3,41,0.00,CLR,SKC,0.00,WeatherDisplay:10.37,2013-01-24 17:44:00,
2013-01-24 10:49:00,58.6,35.0,32.26,WNW,292,2.3,0.0,41,0.00,CLR,SKC,0.00,WeatherDisplay:10.37,2013-01-24 17:49:00,
2013-01-24 10:54:00,58.8,35.2,32.26,WNW,292,3.5,3.5,41,0.00,CLR,SKC,0.00,WeatherDisplay:10.37,2013-01-24 17:54:00,
2013-01-24 10:59:00,58.8,34.5,32.26,WNW,292,0.0,0.0,40,0.00,CLR,SKC,0.00,WeatherDisplay:10.37,2013-01-24 17:59:00,
2013-01-24 11:04:00,59.5,35.2,32.26,WNW,292,0.0,0.0,40,0.00,CLR,SKC,0.00,WeatherDisplay:10.37,2013-01-24 18:04:00,
2013-01-24 11:09:00,59.7,35.3,32.26,WNW,292,0.0,0.0,40,0.00,CLR,SKC,0.00,WeatherDisplay:10.37,2013-01-24 18:09:00,
2013-01-24 11:14:00,60.4,35.3,32.26,WNW,292,0.0,0.0,39,0.00,CLR,SKC,0.00,WeatherDisplay:10.37,2013-01-24 18:14:00,
2013-01-24 11:19:00,60.6,35.5,32.26,WNW,292,0.0,0.0,39,0.00,CLR,SKC,0.00,WeatherDisplay:10.37,2013-01-24 18:19:00,
2013-01-24 11:24:00,61.2,36.0,31.89,WNW,292,0.0,0.0,39,0.00,CLR,SKC,0.00,WeatherDisplay:10.37,2013-01-24 18:24:00,
2013-01-24 11:29:00,61.5,36.3,32.26,WNW,292,0.0,0.0,39,0.00,CLR,SKC,0.00,WeatherDisplay:10.37,2013-01-24 18:29:00,
2013-01-24 11:34:00,62.2,36.3,32.26,NNE,22,0.0,0.0,38,0.00,CLR,SKC,0.00,WeatherDisplay:10.37,2013-01-24 18:34:00,
2013-01-24 11:39:00,63.0,36.9,32.26,NE,45,0.0,0.6,38,0.00,CLR,SKC,0.00,WeatherDisplay:10.37,2013-01-24 18:39:00,
2013-01-24 11:44:00,63.7,36.9,31.89,NE,45,0.0,0.0,37,0.00,CLR,SKC,0.00,WeatherDisplay:10.37,2013-01-24 18:44:00,
2013-01-24 11:49:00,64.0,36.5,32.25,NE,45,0.0,0.0,36,0.00,CLR,SKC,0.00,WeatherDisplay:10.37,2013-01-24 18:49:00,
2013-01-24 11:54:00,64.6,37.0,31.89,NE,45,0.0,0.0,36,0.00,CLR,SKC,0.00,WeatherDisplay:10.37,2013-01-24 18:54:00,
2013-01-24 11:59:00,64.9,37.3,32.25,NE,45,0.0,0.0,36,0.00,CLR,SKC,0.00,WeatherDisplay:10.37,2013-01-24 18:59:00,
2013-01-24 12:04:00,65.1,36.8,32.24,NE,45,0.0,0.0,35,0.00,CLR,SKC,0.00,WeatherDisplay:10.37,2013-01-24 19:04:00,
2013-01-24 12:09:00,65.8,37.4,32.25,NE,45,0.0,0.0,35,0.00,CLR,SKC,0.00,WeatherDisplay:10.37,2013-01-24 19:09:00,
2013-01-24 12:14:00,66.0,37.6,32.24,NE,45,0.0,0.0,35,0.00,CLR,SKC,0.00,WeatherDisplay:10.37,2013-01-24 19:14:00,
2013-01-24 12:19:00,66.0,37.6,32.24,ENE,68,0.0,0.0,35,0.00,CLR,SKC,0.00,WeatherDisplay:10.37,2013-01-24 19:19:00,
2013-01-24 12:24:00,66.4,38.6,32.24,East,90,0.0,0.0,36,0.00,CLR,SKC,0.00,WeatherDisplay:10.37,2013-01-24 19:24:00,
2013-01-24 12:29:00,66.4,38.6,32.23,ESE,112,0.0,0.0,36,0.00,CLR,SKC,0.00,WeatherDisplay:10.37,2013-01-24 19:29:00,
2013-01-24 12:34:00,66.2,38.4,32.23,ESE,112,0.0,0.0,36,0.00,CLR,SKC,0.00,WeatherDisplay:10.37,2013-01-24 19:34:00,
2013-01-24 12:39:00,66.2,37.7,31.89,ESE,112,0.0,0.0,35,0.00,CLR,SKC,0.00,WeatherDisplay:10.37,2013-01-24 19:39:00,
2013-01-24 12:44:00,66.2,37.7,31.89,ESE,112,0.0,0.0,35,0.00,CLR,SKC,0.00,WeatherDisplay:10.37,2013-01-24 19:44:00,
2013-01-24 12:49:00,66.0,38.3,32.23,ESE,112,0.0,0.0,36,0.00,CLR,SKC,0.00,WeatherDisplay:10.37,2013-01-24 19:49:00,
2013-01-24 12:54:00,66.0,38.3,32.22,ESE,112,0.0,0.0,36,0.00,CLR,SKC,0.00,WeatherDisplay:10.37,2013-01-24 19:54:00,
2013-01-24 12:59:00,66.0,38.3,31.89,ESE,112,0.0,0.0,36,0.00,CLR,SKC,0.00,WeatherDisplay:10.37,2013-01-24 19:59:00,
2013-01-24 13:04:00,65.8,37.4,31.89,ESE,112,0.0,0.0,35,0.00,CLR,SKC,0.00,WeatherDisplay:10.37,2013-01-24 20:04:00,
2013-01-24 13:09:00,65.8,38.1,31.89,ESE,112,0.0,0.0,36,0.00,CLR,SKC,0.00,WeatherDisplay:10.37,2013-01-24 20:09:00,
2013-01-24 13:14:00,66.0,39.7,32.22,ESE,112,0.0,0.0,38,0.00,CLR,SKC,0.00,WeatherDisplay:10.37,2013-01-24 20:14:00,
2013-01-24 13:19:00,66.0,39.7,32.22,ESE,112,0.0,0.0,38,0.00,CLR,SKC,0.00,WeatherDisplay:10.37,2013-01-24 20:19:00,
2013-01-24 13:24:00,66.0,40.3,32.22,ESE,112,0.0,0.0,39,0.00,CLR,SKC,0.00,WeatherDisplay:10.37,2013-01-24 20:24:00,
2013-01-24 13:29:00,66.0,40.3,31.89,ESE,112,6.3,6.3,39,0.00,CLR,SKC,0.00,WeatherDisplay:10.37,2013-01-24 20:29:00,
2013-01-24 13:34:00,66.0,40.3,32.21,ESE,112,8.1,8.1,39,0.00,CLR,SKC,0.00,WeatherDisplay:10.37,2013-01-24 20:34:00,
2013-01-24 13:39:00,65.5,39.2,32.21,SE,135,8.1,8.1,38,0.00,CLR,SKC,0.00,WeatherDisplay:10.37,2013-01-24 20:39:00,
2013-01-24 13:44:00,65.3,39.7,32.21,SE,135,0.0,0.1,39,0.00,CLR,SKC,0.00,WeatherDisplay:10.37,2013-01-24 20:44:00,
2013-01-24 13:49:00,64.9,38.7,31.89,SE,135,4.6,0.0,38,0.00,CLR,SKC,0.00,WeatherDisplay:10.37,2013-01-24 20:49:00,
2013-01-24 13:54:00,64.8,38.5,32.21,ESE,112,3.4,3.4,38,0.00,CLR,SKC,0.00,WeatherDisplay:10.37,2013-01-24 20:54:00,
2013-01-24 13:59:00,64.4,38.9,32.21,SE,135,4.6,4.6,39,0.00,CLR,SKC,0.00,WeatherDisplay:10.37,2013-01-24 20:59:00,
2013-01-24 14:04:00,64.2,38.7,32.21,NNW,338,2.3,2.3,39,0.00,CLR,SKC,0.00,WeatherDisplay:10.37,2013-01-24 21:04:00,
2013-01-24 14:09:00,64.0,38.6,31.89,South,180,3.5,3.5,39,0.00,CLR,SKC,0.00,WeatherDisplay:10.37,2013-01-24 21:09:00,
2013-01-24 14:14:00,64.0,39.2,32.20,SE,135,3.5,3.5,40,0.00,CLR,SKC,0.00,WeatherDisplay:10.37,2013-01-24 21:14:00,
2013-01-24 14:19:00,63.9,39.1,32.20,South,180,3.5,0.0,40,0.00,CLR,SKC,0.00,WeatherDisplay:10.37,2013-01-24 21:19:00,
2013-01-24 14:24:00,63.7,39.5,31.89,SSE,158,0.0,1.3,41,0.00,CLR,SKC,0.00,WeatherDisplay:10.37,2013-01-24 21:24:00,
2013-01-24 14:29:00,63.7,39.5,32.19,SSE,158,0.0,1.1,41,0.00,CLR,SKC,0.00,WeatherDisplay:10.37,2013-01-24 21:29:00,
2013-01-24 14:34:00,63.7,39.5,32.19,South,180,9.2,9.2,41,0.00,CLR,SKC,0.00,WeatherDisplay:10.37,2013-01-24 21:34:00,
2013-01-24 14:39:00,64.0,40.5,32.19,SSE,158,0.0,0.0,42,0.00,CLR,SKC,0.00,WeatherDisplay:10.37,2013-01-24 21:39:00,
2013-01-24 14:44:00,64.2,40.0,32.19,SE,135,2.3,2.3,41,0.00,CLR,SKC,0.00,WeatherDisplay:10.37,2013-01-24 21:44:00,
2013-01-24 14:49:00,64.6,40.3,32.19,SSE,158,3.8,3.8,41,0.00,CLR,SKC,0.00,WeatherDisplay:10.37,2013-01-24 21:49:00,
2013-01-24 14:54:00,64.8,40.5,32.19,SE,135,0.0,0.0,41,0.00,CLR,SKC,0.00,WeatherDisplay:10.37,2013-01-24 21:54:00,
2013-01-24 14:59:00,64.8,39.9,31.89,SSE,158,0.0,0.0,40,0.00,CLR,SKC,0.00,WeatherDisplay:10.37,2013-01-24 21:59:00,
2013-01-24 15:04:00,64.8,39.9,32.19,SE,135,1.2,0.0,40,0.00,CLR,SKC,0.00,WeatherDisplay:10.37,2013-01-24 22:04:00,
2013-01-24 15:09:00,64.8,39.9,32.19,SE,135,1.1,0.0,40,0.00,CLR,SKC,0.00,WeatherDisplay:10.37,2013-01-24 22:09:00,
2013-01-24 15:14:00,64.8,39.9,32.19,SE,135,6.9,6.9,40,0.00,CLR,SKC,0.00,WeatherDisplay:10.37,2013-01-24 22:14:00,
2013-01-24 15:19:00,64.8,40.5,32.19,ESE,112,8.0,8.0,41,0.00,CLR,SKC,0.00,WeatherDisplay:10.37,2013-01-24 22:19:00,
2013-01-24 15:24:00,64.4,40.8,32.19,East,90,9.2,9.2,42,0.00,CLR,SKC,0.00,WeatherDisplay:10.37,2013-01-24 22:24:00,
2013-01-24 15:29:00,64.0,41.7,32.19,ESE,112,11.5,11.5,44,0.00,CLR,SKC,0.00,WeatherDisplay:10.37,2013-01-24 22:29:00,
2013-01-24 15:34:00,63.7,41.3,31.89,East,90,13.8,13.8,44,0.00,CLR,SKC,0.00,WeatherDisplay:10.37,2013-01-24 22:34:00,
2013-01-24 15:39:00,63.3,41.0,32.19,East,90,11.5,11.5,44,0.00,CLR,SKC,0.00,WeatherDisplay:10.37,2013-01-24 22:39:00,
2013-01-24 15:44:00,63.1,41.4,32.19,East,90,10.4,10.4,45,0.00,CLR,SKC,0.00,WeatherDisplay:10.37,2013-01-24 22:44:00,
2013-01-24 15:49:00,63.0,41.3,32.19,ESE,112,6.9,6.9,45,0.00,CLR,SKC,0.00,WeatherDisplay:10.37,2013-01-24 22:49:00,
2013-01-24 15:54:00,63.0,41.3,31.89,ESE,112,2.5,2.5,45,0.00,CLR,SKC,0.00,WeatherDisplay:10.37,2013-01-24 22:54:00,
2013-01-24 15:59:00,62.8,41.1,32.20,ESE,112,7.6,7.6,45,0.00,CLR,SKC,0.00,WeatherDisplay:10.37,2013-01-24 22:59:00,
2013-01-24 16:04:00,62.8,41.7,31.89,East,90,8.1,8.1,46,0.00,CLR,SKC,0.00,WeatherDisplay:10.37,2013-01-24 23:04:00,
2013-01-24 16:09:00,62.4,41.4,31.89,East,90,5.8,5.8,46,0.00,CLR,SKC,0.00,WeatherDisplay:10.37,2013-01-24 23:09:00,
2013-01-24 16:14:00,62.4,41.4,32.19,East,90,5.8,0.0,46,0.00,CLR,SKC,0.00,WeatherDisplay:10.37,2013-01-24 23:14:00,
2013-01-24 16:19:00,62.2,41.2,32.20,East,90,0.0,0.0,46,0.00,CLR,SKC,0.00,WeatherDisplay:10.37,2013-01-24 23:19:00,
2013-01-24 16:24:00,62.2,41.2,32.20,East,90,0.0,0.0,46,0.00,CLR,SKC,0.00,WeatherDisplay:10.37,2013-01-24 23:24:00,
2013-01-24 16:29:00,62.1,41.0,31.89,ESE,112,3.5,3.5,46,0.00,CLR,SKC,0.00,WeatherDisplay:10.37,2013-01-24 23:29:00,
2013-01-24 16:34:00,62.1,41.0,31.89,ESE,112,8.1,8.1,46,0.00,CLR,SKC,0.00,WeatherDisplay:10.37,2013-01-24 23:34:00,
2013-01-24 16:39:00,62.1,41.0,32.20,ESE,112,8.1,8.1,46,0.00,CLR,SKC,0.00,WeatherDisplay:10.37,2013-01-24 23:39:00,
2013-01-24 16:44:00,61.9,40.9,32.20,ESE,112,9.2,9.2,46,0.00,CLR,SKC,0.00,WeatherDisplay:10.37,2013-01-24 23:44:00,
2013-01-24 16:49:00,61.7,40.7,32.20,ESE,112,5.8,5.8,46,0.00,CLR,SKC,0.00,WeatherDisplay:10.37,2013-01-24 23:49:00,
2013-01-24 16:54:00,61.7,40.7,32.20,ESE,112,8.1,8.1,46,0.00,CLR,SKC,0.00,WeatherDisplay:10.37,2013-01-24 23:54:00,
2013-01-24 16:59:00,61.5,40.5,32.20,ESE,112,8.1,8.1,46,0.00,CLR,SKC,0.00,WeatherDisplay:10.37,2013-01-24 23:59:00,
2013-01-24 17:04:00,61.5,40.5,32.20,ESE,112,3.1,3.1,46,0.00,CLR,SKC,0.00,WeatherDisplay:10.37,2013-01-25 00:04:00,
2013-01-24 17:09:00,61.5,41.1,32.20,ESE,112,6.7,6.7,47,0.00,CLR,SKC,0.00,WeatherDisplay:10.37,2013-01-25 00:09:00,
2013-01-24 17:14:00,61.3,40.9,32.20,ESE,112,8.1,8.1,47,0.00,CLR,SKC,0.00,WeatherDisplay:10.37,2013-01-25 00:14:00,
2013-01-24 17:19:00,61.3,40.4,31.89,ESE,112,4.6,0.0,46,0.00,CLR,SKC,0.00,WeatherDisplay:10.37,2013-01-25 00:19:00,
2013-01-24 17:24:00,61.2,40.2,32.21,ESE,112,0.0,0.0,46,0.00,CLR,SKC,0.00,WeatherDisplay:10.37,2013-01-25 00:24:00,
2013-01-24 17:29:00,61.2,40.2,32.20,ESE,112,0.0,0.0,46,0.00,CLR,SKC,0.00,WeatherDisplay:10.37,2013-01-25 00:29:00,
2013-01-24 17:34:00,61.0,40.0,31.89,ESE,112,0.0,0.0,46,0.00,CLR,SKC,0.00,WeatherDisplay:10.37,2013-01-25 00:34:00,
2013-01-24 17:39:00,61.0,40.0,32.21,ESE,112,0.0,0.0,46,0.00,CLR,SKC,0.00,WeatherDisplay:10.37,2013-01-25 00:39:00,
2013-01-24 17:44:00,60.6,39.7,32.21,ESE,112,0.0,0.0,46,0.00,CLR,SKC,0.00,WeatherDisplay:10.37,2013-01-25 00:44:00,
2013-01-24 17:49:00,60.6,39.7,32.21,ESE,112,0.0,0.0,46,0.00,CLR,SKC,0.00,WeatherDisplay:10.37,2013-01-25 00:49:00,
2013-01-24 17:54:00,60.4,39.5,31.89,ESE,112,0.0,0.0,46,0.00,CLR,SKC,0.00,WeatherDisplay:10.37,2013-01-25 00:54:00,
2013-01-24 17:59:00,60.4,40.1,31.89,ESE,112,0.0,0.0,47,0.00,CLR,SKC,0.00,WeatherDisplay:10.37,2013-01-25 00:59:00,
2013-01-24 18:04:00,60.1,39.8,31.89,SE,135,0.0,0.0,47,0.00,CLR,SKC,0.00,WeatherDisplay:10.37,2013-01-25 01:04:00,
2013-01-24 18:10:00,59.9,39.6,31.89,SE,135,0.0,0.0,47,0.00,CLR,SKC,0.00,WeatherDisplay:10.37,2013-01-25 01:10:00,
2013-01-24 18:15:00,59.5,39.8,32.21,SE,135,0.0,0.0,48,0.00,CLR,SKC,0.00,WeatherDisplay:10.37,2013-01-25 01:15:00,
2013-01-24 18:20:00,59.4,39.7,32.21,SE,135,0.0,0.0,48,0.00,CLR,SKC,0.00,WeatherDisplay:10.37,2013-01-25 01:20:00,
2013-01-24 18:25:00,59.0,39.3,32.21,SE,135,0.0,0.0,48,0.00,CLR,SKC,0.00,WeatherDisplay:10.37,2013-01-25 01:25:00,
2013-01-24 18:30:00,58.8,39.2,32.21,SE,135,0.0,0.0,48,0.00,CLR,SKC,0.00,WeatherDisplay:10.37,2013-01-25 01:30:00,
2013-01-24 18:35:00,58.8,39.7,32.21,SE,135,0.0,0.0,49,0.00,CLR,SKC,0.00,WeatherDisplay:10.37,2013-01-25 01:35:00,
2013-01-24 18:40:00,58.8,39.7,32.21,SE,135,0.0,0.0,49,0.00,CLR,SKC,0.00,WeatherDisplay:10.37,2013-01-25 01:40:00,
2013-01-24 18:45:00,58.6,39.5,31.89,SE,135,0.0,0.0,49,0.00,CLR,SKC,0.00,WeatherDisplay:10.37,2013-01-25 01:45:00,
2013-01-24 18:50:00,58.1,39.0,32.22,SE,135,0.0,0.0,49,0.00,CLR,SKC,0.00,WeatherDisplay:10.37,2013-01-25 01:50:00,
2013-01-24 18:55:00,57.9,39.4,31.89,SE,135,0.0,0.0,50,0.00,CLR,SKC,0.00,WeatherDisplay:10.37,2013-01-25 01:55:00,
2013-01-24 19:00:00,57.9,39.4,32.23,SE,135,0.0,0.0,50,0.00,CLR,SKC,0.00,WeatherDisplay:10.37,2013-01-25 02:00:00,
2013-01-24 19:05:00,57.7,39.2,32.23,SE,135,0.0,0.0,50,0.00,CLR,SKC,0.00,WeatherDisplay:10.37,2013-01-25 02:05:00,
2013-01-24 19:10:00,57.6,39.0,32.23,SE,135,0.0,0.0,50,0.00,CLR,SKC,0.00,WeatherDisplay:10.37,2013-01-25 02:10:00,
2013-01-24 19:15:00,57.4,38.9,31.89,SE,135,0.0,0.0,50,0.00,CLR,SKC,0.00,WeatherDisplay:10.37,2013-01-25 02:15:00,
2013-01-24 19:20:00,57.4,38.9,32.23,SE,135,0.0,0.0,50,0.00,CLR,SKC,0.00,WeatherDisplay:10.37,2013-01-25 02:20:00,
2013-01-24 19:25:00,57.4,38.9,31.89,SE,135,0.0,0.0,50,0.00,CLR,SKC,0.00,WeatherDisplay:10.37,2013-01-25 02:25:00,
2013-01-24 19:30:00,57.2,38.7,32.23,SE,135,0.0,0.0,50,0.00,CLR,SKC,0.00,WeatherDisplay:10.37,2013-01-25 02:30:00,
2013-01-24 19:35:00,57.0,39.1,32.23,SE,135,0.0,0.0,51,0.00,CLR,SKC,0.00,WeatherDisplay:10.37,2013-01-25 02:35:00,
2013-01-24 19:40:00,57.0,39.1,32.23,SE,135,0.0,0.0,51,0.00,CLR,SKC,0.00,WeatherDisplay:10.37,2013-01-25 02:40:00,
2013-01-24 19:45:00,57.0,39.1,32.23,SE,135,0.0,0.0,51,0.00,CLR,SKC,0.00,WeatherDisplay:10.37,2013-01-25 02:45:00,
2013-01-24 19:50:00,57.0,39.6,32.22,SE,135,0.0,0.0,52,0.00,CLR,SKC,0.00,WeatherDisplay:10.37,2013-01-25 02:50:00,
2013-01-24 19:55:00,56.8,39.4,32.22,SE,135,0.0,0.0,52,0.00,CLR,SKC,0.00,WeatherDisplay:10.37,2013-01-25 02:55:00,
2013-01-24 20:00:00,56.8,39.4,32.22,SE,135,0.0,0.0,52,0.00,CLR,SKC,0.00,WeatherDisplay:10.37,2013-01-25 03:00:00,
2013-01-24 20:05:00,56.7,39.2,32.22,SE,135,0.0,0.0,52,0.00,CLR,SKC,0.00,WeatherDisplay:10.37,2013-01-25 03:05:00,
2013-01-24 20:10:00,56.5,39.1,32.22,SE,135,0.0,0.0,52,0.00,CLR,SKC,0.00,WeatherDisplay:10.37,2013-01-25 03:10:00,
2013-01-24 20:15:00,56.3,39.4,32.22,SE,135,0.0,0.0,53,0.00,CLR,SKC,0.00,WeatherDisplay:10.37,2013-01-25 03:15:00,
2013-01-24 20:20:00,56.1,39.2,31.89,SE,135,0.0,0.0,53,0.00,CLR,SKC,0.00,WeatherDisplay:10.37,2013-01-25 03:20:00,
2013-01-24 20:25:00,55.8,38.9,32.24,SE,135,0.0,0.0,53,0.00,CLR,SKC,0.00,WeatherDisplay:10.37,2013-01-25 03:25:00,
2013-01-24 20:30:00,55.4,39.0,32.23,SE,135,0.0,0.0,54,0.00,CLR,SKC,0.00,WeatherDisplay:10.37,2013-01-25 03:30:00,
2013-01-24 20:35:00,55.2,38.9,31.89,SE,135,0.0,0.0,54,0.00,CLR,SKC,0.00,WeatherDisplay:10.37,2013-01-25 03:35:00,
2013-01-24 20:40:00,55.0,38.7,31.89,SE,135,0.0,0.0,54,0.00,CLR,SKC,0.00,WeatherDisplay:10.37,2013-01-25 03:40:00,
2013-01-24 20:45:00,55.0,38.7,32.23,SE,135,0.0,0.0,54,0.00,CLR,SKC,0.00,WeatherDisplay:10.37,2013-01-25 03:45:00,
2013-01-24 20:50:00,54.9,38.5,32.24,SE,135,0.0,0.0,54,0.00,CLR,SKC,0.00,WeatherDisplay:10.37,2013-01-25 03:50:00,
2013-01-24 20:55:00,54.7,38.4,31.89,SE,135,0.0,0.0,54,0.00,CLR,SKC,0.00,WeatherDisplay:10.37,2013-01-25 03:55:00,
2013-01-24 21:00:00,54.7,38.4,31.89,SE,135,0.0,0.0,54,0.00,CLR,SKC,0.00,WeatherDisplay:10.37,2013-01-25 04:00:00,
2013-01-24 21:05:00,54.7,38.8,32.24,SE,135,0.0,0.0,55,0.00,CLR,SKC,0.00,WeatherDisplay:10.37,2013-01-25 04:05:00,
2013-01-24 21:10:00,54.7,39.3,32.24,SE,135,0.0,0.0,56,0.00,CLR,SKC,0.00,WeatherDisplay:10.37,2013-01-25 04:10:00,
2013-01-24 21:15:00,54.7,39.3,32.23,SE,135,0.0,0.0,56,0.00,CLR,SKC,0.00,WeatherDisplay:10.37,2013-01-25 04:15:00,
2013-01-24 21:20:00,54.5,39.1,31.89,SE,135,0.0,0.0,56,0.00,CLR,SKC,0.00,WeatherDisplay:10.37,2013-01-25 04:20:00,
2013-01-24 21:25:00,54.5,39.1,32.24,SE,135,0.0,0.0,56,0.00,CLR,SKC,0.00,WeatherDisplay:10.37,2013-01-25 04:25:00,
2013-01-24 21:30:00,54.5,39.1,32.23,SE,135,0.0,0.0,56,0.00,CLR,SKC,0.00,WeatherDisplay:10.37,2013-01-25 04:30:00,
2013-01-24 21:35:00,54.3,38.9,31.89,SE,135,0.0,0.0,56,0.00,CLR,SKC,0.00,WeatherDisplay:10.37,2013-01-25 04:35:00,
2013-01-24 21:40:00,54.3,38.9,31.89,SE,135,0.0,0.0,56,0.00,CLR,SKC,0.00,WeatherDisplay:10.37,2013-01-25 04:40:00,
2013-01-24 21:45:00,54.1,38.8,32.23,SE,135,0.0,0.0,56,0.00,CLR,SKC,0.00,WeatherDisplay:10.37,2013-01-25 04:45:00,
2013-01-24 21:50:00,54.0,38.6,32.24,SE,135,0.0,0.0,56,0.00,CLR,SKC,0.00,WeatherDisplay:10.37,2013-01-25 04:50:00,
2013-01-24 21:55:00,53.8,38.9,32.23,SE,135,0.0,0.0,57,0.00,CLR,SKC,0.00,WeatherDisplay:10.37,2013-01-25 04:55:00,
2013-01-24 22:00:00,53.8,38.9,31.89,SE,135,0.0,0.0,57,0.00,CLR,SKC,0.00,WeatherDisplay:10.37,2013-01-25 05:00:00,
2013-01-24 22:01:00,53.8,38.9,32.23,SE,135,0.0,0.0,57,0.00,CLR,SKC,0.00,WeatherDisplay:10.37,2013-01-25 05:01:00,
2013-01-24 22:02:00,53.8,38.9,32.24,SE,135,0.0,0.0,57,0.00,CLR,SKC,0.00,WeatherDisplay:10.37,2013-01-25 05:02:00,
2013-01-24 22:03:00,53.8,38.9,32.24,SE,135,0.0,0.0,57,0.00,CLR,SKC,0.00,WeatherDisplay:10.37,2013-01-25 05:03:00,
2013-01-24 22:08:00,53.4,38.1,32.24,SE,135,0.0,0.0,56,0.00,CLR,SKC,0.00,WeatherDisplay:10.37,2013-01-25 05:08:00,
2013-01-24 22:13:00,53.4,38.1,32.24,SE,135,0.0,0.0,56,0.00,CLR,SKC,0.00,WeatherDisplay:10.37,2013-01-25 05:13:00,
2013-01-24 22:18:00,53.2,38.4,31.89,SE,135,0.0,0.0,57,0.00,CLR,SKC,0.00,WeatherDisplay:10.37,2013-01-25 05:18:00,
2013-01-24 22:23:00,53.2,38.4,32.24,SE,135,0.0,0.0,57,0.00,CLR,SKC,0.00,WeatherDisplay:10.37,2013-01-25 05:23:00,
2013-01-24 22:28:00,53.1,38.7,31.89,SE,135,0.0,0.0,58,0.00,CLR,SKC,0.00,WeatherDisplay:10.37,2013-01-25 05:28:00,
2013-01-24 22:33:00,53.2,38.8,32.24,SE,135,0.0,0.0,58,0.00,CLR,SKC,0.00,WeatherDisplay:10.37,2013-01-25 05:33:00,
2013-01-24 22:38:00,53.2,38.8,31.89,SE,135,0.0,0.0,58,0.00,CLR,SKC,0.00,WeatherDisplay:10.37,2013-01-25 05:38:00,
2013-01-24 22:43:00,53.2,38.8,32.24,SE,135,0.0,0.0,58,0.00,CLR,SKC,0.00,WeatherDisplay:10.37,2013-01-25 05:43:00,
2013-01-24 22:48:00,53.2,38.8,32.24,SE,135,0.0,0.0,58,0.00,CLR,SKC,0.00,WeatherDisplay:10.37,2013-01-25 05:48:00,
2013-01-24 22:53:00,53.2,38.8,31.89,SE,135,0.0,0.0,58,0.00,CLR,SKC,0.00,WeatherDisplay:10.37,2013-01-25 05:53:00,
2013-01-24 22:58:00,53.2,38.8,32.24,SE,135,0.0,0.0,58,0.00,CLR,SKC,0.00,WeatherDisplay:10.37,2013-01-25 05:58:00,
2013-01-24 23:03:00,53.2,38.8,32.24,SE,135,0.0,0.0,58,0.00,CLR,SKC,0.00,WeatherDisplay:10.37,2013-01-25 06:03:00,
2013-01-24 23:08:00,53.2,38.8,32.24,SE,135,0.0,0.0,58,0.00,CLR,SKC,0.00,WeatherDisplay:10.37,2013-01-25 06:08:00,
2013-01-24 23:13:00,52.9,38.5,32.24,SE,135,0.0,0.0,58,0.00,CLR,SKC,0.00,WeatherDisplay:10.37,2013-01-25 06:13:00,
2013-01-24 23:18:00,52.5,37.7,31.89,SE,135,0.0,0.0,57,0.00,CLR,SKC,0.00,WeatherDisplay:10.37,2013-01-25 06:18:00,
2013-01-24 23:23:00,52.3,38.0,32.24,SE,135,0.0,0.0,58,0.00,CLR,SKC,0.00,WeatherDisplay:10.37,2013-01-25 06:23:00,
2013-01-24 23:28:00,52.2,38.3,31.89,SE,135,0.0,0.0,59,0.00,CLR,SKC,0.00,WeatherDisplay:10.37,2013-01-25 06:28:00,
2013-01-24 23:33:00,52.2,38.3,32.24,SE,135,0.0,0.0,59,0.00,CLR,SKC,0.00,WeatherDisplay:10.37,2013-01-25 06:33:00,
2013-01-24 23:38:00,52.2,38.3,32.24,SE,135,0.0,0.0,59,0.00,CLR,SKC,0.00,WeatherDisplay:10.37,2013-01-25 06:38:00,
2013-01-24 23:43:00,52.2,38.3,32.23,SE,135,0.0,0.0,59,0.00,CLR,SKC,0.00,WeatherDisplay:10.37,2013-01-25 06:43:00,
2013-01-24 23:48:00,52.2,38.3,32.23,SE,135,0.0,0.0,59,0.00,CLR,SKC,0.00,WeatherDisplay:10.37,2013-01-25 06:48:00,
2013-01-24 23:53:00,52.2,38.3,32.23,SE,135,0.0,0.0,59,0.00,CLR,SKC,0.00,WeatherDisplay:10.37,2013-01-25 06:53:00,
2013-01-24 23:58:00,51.6,37.3,32.24,SE,135,0.0,0.0,58,0.00,CLR,SKC,0.00,WeatherDisplay:10.37,2013-01-25 06:58:00,